createdAt,value
2018-05-08T00:01:06.802Z,51.83
2018-05-08T00:03:34.205Z,51.45
2018-05-08T00:06:01.591Z,52.88
2018-05-08T00:08:28.983Z,53.34
2018-05-08T00:10:56.371Z,54.88
2018-05-08T00:13:23.768Z,55.30
2018-05-08T00:15:51.154Z,55.15
2018-05-08T00:18:18.547Z,55.14
2018-05-08T00:20:45.939Z,54.20
2018-05-08T00:23:13.331Z,55.53
2018-05-08T00:25:40.719Z,55.62
2018-05-08T00:28:08.146Z,56.32
2018-05-08T00:30:35.500Z,57.14
2018-05-08T00:33:02.902Z,57.07
2018-05-08T00:35:30.287Z,57.23
2018-05-08T00:37:57.672Z,57.99
2018-05-08T00:40:25.061Z,57.61
2018-05-08T00:42:52.638Z,57.83
2018-05-08T00:45:20.027Z,58.56
2018-05-08T00:47:47.414Z,58.01
2018-05-08T00:50:14.806Z,58.08
2018-05-08T00:52:42.278Z,59.27
2018-05-08T00:55:09.659Z,58.77
2018-05-08T00:57:37.062Z,58.54
2018-05-08T01:00:04.454Z,58.98
2018-05-08T01:02:31.847Z,59.86
2018-05-08T01:04:59.607Z,59.73
2018-05-08T01:07:26.931Z,59.80
2018-05-08T01:09:54.462Z,60.97
2018-05-08T01:12:21.860Z,60.96
2018-05-08T01:14:49.239Z,61.34
2018-05-08T01:17:16.641Z,61.56
2018-05-08T01:19:44.023Z,61.75
2018-05-08T01:22:11.412Z,62.06
2018-05-08T01:24:38.795Z,62.03
2018-05-08T01:27:06.184Z,62.52
2018-05-08T01:29:33.580Z,62.33
2018-05-08T01:32:00.967Z,62.81
2018-05-08T01:34:28.351Z,62.91
2018-05-08T01:36:55.740Z,61.99
2018-05-08T01:39:23.119Z,61.87
2018-05-08T01:41:50.507Z,60.94
2018-05-08T01:44:17.912Z,61.17
2018-05-08T01:46:45.654Z,61.20
2018-05-08T01:49:13.031Z,62.12
2018-05-08T01:51:40.422Z,63.22
2018-05-08T01:54:07.807Z,62.46
2018-05-08T01:56:35.186Z,62.86
2018-05-08T01:59:02.578Z,63.39
2018-05-08T02:01:29.964Z,63.41
2018-05-08T02:03:57.347Z,63.15
2018-05-08T02:06:24.735Z,63.45
2018-05-08T02:08:52.118Z,63.95
2018-05-08T02:11:19.529Z,64.34
2018-05-08T02:13:46.895Z,64.88
2018-05-08T02:16:14.279Z,65.32
2018-05-08T02:18:41.671Z,65.12
2018-05-08T02:21:09.059Z,64.95
2018-05-08T02:23:36.462Z,65.17
2018-05-08T02:26:03.839Z,64.98
2018-05-08T02:28:31.223Z,65.17
2018-05-08T02:30:58.717Z,64.44
2018-05-08T02:33:25.995Z,64.20
2018-05-08T02:35:53.380Z,65.08
2018-05-08T02:38:20.775Z,64.71
2018-05-08T02:40:48.156Z,64.16
2018-05-08T02:43:15.539Z,64.81
2018-05-08T02:45:42.932Z,65.20
2018-05-08T02:48:10.310Z,64.58
2018-05-08T02:50:37.703Z,64.45
2018-05-08T02:53:05.093Z,63.29
2018-05-08T02:55:32.481Z,63.00
2018-05-08T02:57:59.855Z,63.45
2018-05-08T03:00:27.251Z,64.30
2018-05-08T03:02:54.631Z,64.52
2018-05-08T03:05:22.496Z,65.17
2018-05-08T03:07:49.875Z,65.37
2018-05-08T03:10:17.255Z,65.52
2018-05-08T03:12:44.646Z,65.61
2018-05-08T03:15:12.034Z,65.29
2018-05-08T03:17:39.423Z,65.39
2018-05-08T03:20:06.862Z,64.99
2018-05-08T03:22:34.234Z,64.29
2018-05-08T03:25:01.619Z,64.96
2018-05-08T03:27:29.002Z,65.89
2018-05-08T03:29:56.398Z,66.61
2018-05-08T03:32:23.786Z,67.02
2018-05-08T03:34:51.170Z,65.84
2018-05-08T03:37:18.567Z,65.38
2018-05-08T03:39:45.971Z,65.32
2018-05-08T03:42:13.383Z,64.94
2018-05-08T03:44:40.758Z,64.86
2018-05-08T03:47:08.455Z,66.11
2018-05-08T03:49:35.835Z,66.79
2018-05-08T03:52:03.218Z,66.87
2018-05-08T03:54:30.611Z,67.00
2018-05-08T03:56:57.991Z,66.94
2018-05-08T03:59:25.425Z,67.03
2018-05-08T04:02:04.480Z,67.38
2018-05-08T04:04:43.577Z,67.62
2018-05-08T04:07:22.767Z,67.99
2018-05-08T04:09:50.188Z,68.08
2018-05-08T04:12:17.575Z,68.22
2018-05-08T04:14:44.959Z,68.48
2018-05-08T04:17:12.338Z,68.32
2018-05-08T04:19:39.736Z,68.28
2018-05-08T04:22:07.111Z,68.65
2018-05-08T04:24:34.495Z,68.45
2018-05-08T04:27:01.876Z,68.71
2018-05-08T04:29:29.267Z,69.10
2018-05-08T04:31:56.648Z,69.04
2018-05-08T04:34:24.138Z,69.20
2018-05-08T04:36:51.550Z,69.35
2018-05-08T04:39:18.915Z,69.06
2018-05-08T04:41:46.298Z,69.36
2018-05-08T04:44:14.043Z,69.52
2018-05-08T04:46:41.431Z,69.47
2018-05-08T04:49:08.810Z,69.93
2018-05-08T04:51:36.271Z,70.21
2018-05-08T04:54:03.648Z,70.60
2018-05-08T04:56:31.027Z,70.30
2018-05-08T04:58:58.402Z,69.93
2018-05-08T05:01:25.789Z,69.69
2018-05-08T05:03:53.155Z,69.85
2018-05-08T05:06:20.534Z,69.67
2018-05-08T05:08:47.907Z,68.76
2018-05-08T05:11:15.295Z,68.36
2018-05-08T05:13:42.677Z,68.56
2018-05-08T05:16:10.047Z,68.95
2018-05-08T05:18:37.426Z,69.16
2018-05-08T05:21:04.798Z,68.59
2018-05-08T05:23:32.183Z,68.50
2018-05-08T05:25:59.562Z,68.70
2018-05-08T05:28:26.946Z,68.68
2018-05-08T05:30:54.326Z,68.14
2018-05-08T05:33:21.707Z,68.31
2018-05-08T05:35:49.082Z,68.45
2018-05-08T05:38:16.468Z,69.15
2018-05-08T05:40:43.846Z,68.98
2018-05-08T05:43:11.232Z,68.33
2018-05-08T05:45:38.859Z,68.63
2018-05-08T05:48:06.247Z,69.32
2018-05-08T05:50:33.618Z,68.23
2018-05-08T05:53:01.036Z,66.98
2018-05-08T05:55:28.407Z,66.44
2018-05-08T05:57:55.783Z,65.59
2018-05-08T06:00:23.163Z,64.67
2018-05-08T06:02:50.539Z,64.69
2018-05-08T06:05:17.923Z,65.05
2018-05-08T06:07:45.298Z,64.23
2018-05-08T06:10:12.694Z,62.95
2018-05-08T06:12:40.059Z,64.02
2018-05-08T06:15:07.438Z,62.43
2018-05-08T06:17:34.818Z,62.83
2018-05-08T06:20:02.257Z,63.35
2018-05-08T06:22:29.619Z,64.03
2018-05-08T06:24:57.002Z,62.88
2018-05-08T06:27:24.371Z,61.74
2018-05-08T06:29:51.751Z,62.40
2018-05-08T06:32:19.127Z,61.39
2018-05-08T06:34:46.875Z,61.17
2018-05-08T06:37:14.260Z,60.77
2018-05-08T06:39:41.641Z,59.85
2018-05-08T06:42:09.012Z,58.30
2018-05-08T06:44:36.387Z,60.73
2018-05-08T06:47:03.766Z,57.38
2018-05-08T06:49:31.142Z,60.20
2018-05-08T06:51:58.522Z,58.58
2018-05-08T06:54:25.902Z,55.58
2018-05-08T06:56:53.280Z,56.63
2018-05-08T06:59:20.659Z,57.95
2018-05-08T07:01:48.039Z,56.36
2018-05-08T07:04:15.416Z,56.91
2018-05-08T07:06:42.798Z,57.92
2018-05-08T07:09:10.228Z,56.09
2018-05-08T07:11:37.571Z,55.70
2018-05-08T07:14:04.977Z,54.64
2018-05-08T07:16:32.315Z,55.51
2018-05-08T07:18:59.696Z,53.30
2018-05-08T07:21:27.075Z,53.78
2018-05-08T07:23:54.520Z,53.64
2018-05-08T07:26:21.897Z,53.51
2018-05-08T07:28:49.275Z,53.20
2018-05-08T07:31:16.658Z,54.07
2018-05-08T07:33:44.039Z,53.08
2018-05-08T07:36:11.424Z,53.03
2018-05-08T07:38:38.799Z,51.41
2018-05-08T07:41:06.178Z,52.38
2018-05-08T07:43:33.563Z,51.40
2018-05-08T07:46:00.935Z,50.37
2018-05-08T07:48:28.315Z,51.37
2018-05-08T07:50:55.686Z,50.31
2018-05-08T07:53:23.067Z,50.86
2018-05-08T07:55:50.462Z,51.76
2018-05-08T07:58:18.163Z,51.96
2018-05-08T08:00:45.542Z,48.06
2018-05-08T08:03:12.927Z,49.24
2018-05-08T08:05:40.300Z,49.76
2018-05-08T08:08:07.685Z,50.12
2018-05-08T08:10:35.060Z,48.53
2018-05-08T08:13:02.440Z,47.18
2018-05-08T08:15:29.819Z,49.81
2018-05-08T08:17:57.207Z,46.75
2018-05-08T08:20:24.586Z,47.70
2018-05-08T08:22:51.963Z,47.25
2018-05-08T08:25:19.395Z,47.08
2018-05-08T08:27:46.770Z,48.51
2018-05-08T08:30:14.151Z,46.89
2018-05-08T08:32:41.538Z,46.11
2018-05-08T08:35:08.923Z,44.31
2018-05-08T08:37:36.302Z,43.61
2018-05-08T08:40:03.674Z,43.23
2018-05-08T08:42:31.056Z,45.23
2018-05-08T08:44:58.428Z,47.44
2018-05-08T08:47:25.805Z,46.13
2018-05-08T08:49:53.199Z,42.90
2018-05-08T08:52:20.628Z,43.25
2018-05-08T08:54:47.970Z,43.56
2018-05-08T08:57:15.346Z,42.73
2018-05-08T08:59:42.719Z,42.54
2018-05-08T09:02:10.099Z,41.15
2018-05-08T09:04:37.478Z,40.16
2018-05-08T09:07:04.868Z,39.35
2018-05-08T09:09:32.244Z,37.10
2018-05-08T09:11:59.636Z,41.82
2018-05-08T09:14:27.018Z,40.28
2018-05-08T09:16:54.775Z,38.51
2018-05-08T09:19:22.158Z,37.43
2018-05-08T09:21:49.539Z,38.08
2018-05-08T09:24:16.919Z,37.79
2018-05-08T09:26:44.294Z,38.39
2018-05-08T09:29:11.678Z,36.64
2018-05-08T09:31:39.062Z,36.92
2018-05-08T09:34:06.471Z,36.98
2018-05-08T09:36:33.834Z,35.69
2018-05-08T09:39:01.211Z,35.31
2018-05-08T09:41:28.583Z,34.67
2018-05-08T09:43:56.031Z,36.97
2018-05-08T09:46:23.388Z,36.13
2018-05-08T09:48:50.783Z,33.34
2018-05-08T09:51:18.135Z,33.01
2018-05-08T09:53:45.524Z,32.81
2018-05-08T09:56:12.899Z,32.59
2018-05-08T09:58:40.311Z,30.89
2018-05-08T10:01:07.723Z,28.43
2018-05-08T10:03:35.071Z,30.72
2018-05-08T10:06:02.456Z,30.36
2018-05-08T10:08:29.835Z,31.37
2018-05-08T10:10:57.215Z,30.79
2018-05-08T10:13:24.587Z,32.26
2018-05-08T10:15:51.967Z,29.93
2018-05-08T10:18:19.339Z,29.48
2018-05-08T10:20:46.809Z,29.94
2018-05-08T10:23:14.099Z,28.77
2018-05-08T10:25:41.491Z,27.57
2018-05-08T10:28:08.852Z,28.46
2018-05-08T10:30:36.239Z,28.09
2018-05-08T10:33:03.690Z,25.68
2018-05-08T10:35:30.999Z,24.06
2018-05-08T10:37:58.379Z,28.71
2018-05-08T10:40:25.763Z,29.07
2018-05-08T10:42:53.147Z,27.39
2018-05-08T10:45:20.542Z,25.69
2018-05-08T10:47:47.915Z,27.24
2018-05-08T10:50:15.291Z,26.08
2018-05-08T10:52:42.679Z,27.33
2018-05-08T10:55:10.199Z,24.37
2018-05-08T10:57:37.591Z,25.65
2018-05-08T11:00:04.973Z,27.33
2018-05-08T11:02:32.339Z,23.67
2018-05-08T11:04:59.711Z,26.52
2018-05-08T11:07:27.094Z,22.32
2018-05-08T11:09:54.475Z,25.27
2018-05-08T11:12:21.962Z,24.26
2018-05-08T11:14:49.299Z,21.49
2018-05-08T11:17:16.679Z,23.90
2018-05-08T11:19:44.112Z,21.62
2018-05-08T11:22:11.442Z,22.47
2018-05-08T11:24:38.826Z,22.64
2018-05-08T11:27:06.219Z,24.91
2018-05-08T11:29:33.600Z,24.49
2018-05-08T11:32:00.971Z,22.38
2018-05-08T11:34:28.355Z,25.65
2018-05-08T11:36:55.726Z,23.78
2018-05-08T11:39:23.148Z,24.20
2018-05-08T11:41:50.495Z,23.78
2018-05-08T11:44:17.867Z,22.14
2018-05-08T11:46:45.243Z,22.10
2018-05-08T11:49:12.642Z,22.79
2018-05-08T11:51:40.020Z,21.98
2018-05-08T11:54:07.735Z,22.31
2018-05-08T11:56:35.111Z,22.95
2018-05-08T11:59:02.495Z,23.38
2018-05-08T12:01:29.897Z,27.14
2018-05-08T12:03:57.259Z,21.98
2018-05-08T12:06:24.638Z,22.81
2018-05-08T12:08:52.039Z,21.73
2018-05-08T12:11:19.411Z,22.96
2018-05-08T12:13:46.795Z,22.29
2018-05-08T12:16:14.180Z,20.52
2018-05-08T12:18:41.555Z,25.87
2018-05-08T12:21:08.939Z,23.24
2018-05-08T12:23:36.322Z,25.13
2018-05-08T12:26:03.706Z,22.79
2018-05-08T12:28:31.095Z,23.93
2018-05-08T12:30:58.499Z,20.82
2018-05-08T12:33:25.927Z,20.55
2018-05-08T12:35:53.692Z,22.95
2018-05-08T12:38:21.087Z,23.40
2018-05-08T12:40:48.479Z,22.50
2018-05-08T12:43:15.902Z,25.91
2018-05-08T12:45:43.292Z,25.51
2018-05-08T12:48:10.671Z,22.23
2018-05-08T12:50:38.051Z,24.38
2018-05-08T12:53:05.453Z,22.14
2018-05-08T12:55:32.825Z,26.63
2018-05-08T12:58:00.223Z,27.29
2018-05-08T13:00:27.604Z,22.58
2018-05-08T13:02:54.987Z,26.44
2018-05-08T13:05:22.463Z,25.27
2018-05-08T13:07:49.759Z,25.87
2018-05-08T13:10:17.608Z,26.06
2018-05-08T13:12:44.991Z,26.14
2018-05-08T13:15:12.384Z,23.37
2018-05-08T13:17:39.772Z,22.33
2018-05-08T13:20:07.155Z,22.21
2018-05-08T13:22:34.543Z,21.31
2018-05-08T13:25:01.999Z,25.23
2018-05-08T13:27:29.339Z,22.58
2018-05-08T13:29:56.735Z,22.47
2018-05-08T13:32:24.110Z,26.31
2018-05-08T13:34:51.497Z,26.09
2018-05-08T13:37:18.899Z,22.48
2018-05-08T13:39:46.289Z,24.40
2018-05-08T13:42:13.672Z,27.62
2018-05-08T13:44:41.059Z,22.50
2018-05-08T13:47:08.454Z,23.34
2018-05-08T13:49:35.843Z,25.07
2018-05-08T13:52:03.236Z,24.40
2018-05-08T13:54:30.907Z,26.39
2018-05-08T13:56:58.294Z,22.65
2018-05-08T13:59:25.811Z,23.34
2018-05-08T14:01:53.187Z,24.15
2018-05-08T14:04:20.579Z,24.94
2018-05-08T14:06:48.042Z,23.48
2018-05-08T14:09:15.348Z,24.29
2018-05-08T14:11:42.725Z,23.09
2018-05-08T14:14:10.131Z,25.43
2018-05-08T14:16:37.543Z,24.52
2018-05-08T14:19:04.928Z,26.72
2018-05-08T14:21:32.338Z,25.79
2018-05-08T14:23:59.703Z,22.23
2018-05-08T14:26:27.094Z,24.52
2018-05-08T14:28:54.556Z,22.45
2018-05-08T14:31:22.070Z,23.27
2018-05-08T14:33:49.343Z,26.01
2018-05-08T14:36:17.540Z,23.14
2018-05-08T14:38:45.058Z,24.29
2018-05-08T14:41:12.431Z,22.64
2018-05-08T14:43:39.926Z,26.83
2018-05-08T14:46:07.313Z,24.99
2018-05-08T14:48:34.696Z,25.66
2018-05-08T14:51:02.077Z,26.58
2018-05-08T14:53:29.451Z,24.46
2018-05-08T14:55:56.842Z,24.99
2018-05-08T14:58:24.214Z,25.80
2018-05-08T15:00:51.596Z,23.20
2018-05-08T15:03:18.976Z,23.15
2018-05-08T15:05:46.422Z,23.79
2018-05-08T15:08:13.806Z,25.46
2018-05-08T15:10:41.251Z,25.02
2018-05-08T15:13:08.632Z,22.67
2018-05-08T15:15:36.004Z,21.82
2018-05-08T15:18:03.861Z,22.58
2018-05-08T15:20:31.282Z,22.23
2018-05-08T15:22:58.680Z,25.60
2018-05-08T15:25:26.075Z,23.06
2018-05-08T15:27:53.447Z,21.30
2018-05-08T15:30:20.830Z,24.55
2018-05-08T15:32:48.231Z,24.06
2018-05-08T15:35:15.615Z,22.84
2018-05-08T15:37:42.995Z,25.74
2018-05-08T15:40:10.384Z,24.25
2018-05-08T15:42:37.767Z,22.08
2018-05-08T15:45:05.153Z,23.89
2018-05-08T15:47:32.529Z,26.55
2018-05-08T15:49:59.911Z,24.55
2018-05-08T15:52:27.300Z,22.78
2018-05-08T15:54:54.676Z,23.25
2018-05-08T15:57:22.052Z,23.78
2018-05-08T15:59:49.791Z,22.90
2018-05-08T16:02:17.236Z,26.44
2018-05-08T16:04:44.559Z,25.54
2018-05-08T16:07:11.943Z,26.16
2018-05-08T16:09:39.419Z,27.71
2018-05-08T16:12:06.807Z,24.84
2018-05-08T16:14:34.256Z,23.87
2018-05-08T16:17:01.635Z,25.56
2018-05-08T16:19:29.015Z,24.28
2018-05-08T16:21:56.403Z,25.98
2018-05-08T16:24:23.784Z,29.04
2018-05-08T16:26:51.171Z,25.37
2018-05-08T16:29:18.557Z,26.79
2018-05-08T16:31:45.947Z,23.42
2018-05-08T16:34:13.325Z,24.95
2018-05-08T16:36:40.703Z,25.00
2018-05-08T16:39:08.085Z,25.12
2018-05-08T16:41:35.482Z,25.51
2018-05-08T16:44:02.873Z,25.37
2018-05-08T16:46:30.306Z,24.93
2018-05-08T16:48:57.739Z,28.05
2018-05-08T16:51:25.100Z,27.74
2018-05-08T16:53:52.500Z,26.07
2018-05-08T16:56:19.871Z,28.27
2018-05-08T16:58:47.334Z,27.64
2018-05-08T17:01:14.731Z,27.54
2018-05-08T17:03:42.112Z,27.55
2018-05-08T17:06:09.491Z,25.80
2018-05-08T17:08:36.881Z,25.03
2018-05-08T17:11:04.275Z,25.73
2018-05-08T17:13:31.656Z,27.69
2018-05-08T17:15:59.039Z,25.74
2018-05-08T17:18:26.446Z,26.62
2018-05-08T17:20:53.832Z,27.57
2018-05-08T17:23:21.210Z,29.18
2018-05-08T17:25:48.583Z,27.84
2018-05-08T17:28:16.001Z,26.75
2018-05-08T17:30:43.339Z,27.51
2018-05-08T17:33:10.718Z,27.48
2018-05-08T17:35:38.104Z,29.15
2018-05-08T17:38:05.477Z,28.41
2018-05-08T17:40:32.855Z,28.36
2018-05-08T17:43:00.227Z,28.46
2018-05-08T17:45:27.615Z,29.00
2018-05-08T17:47:54.983Z,30.32
2018-05-08T17:50:23.219Z,31.73
2018-05-08T17:52:50.604Z,30.19
2018-05-08T17:55:18.007Z,30.89
2018-05-08T17:57:45.634Z,33.26
2018-05-08T18:00:13.018Z,30.54
2018-05-08T18:02:40.403Z,31.07
2018-05-08T18:05:07.779Z,33.60
2018-05-08T18:07:35.163Z,29.91
2018-05-08T18:10:02.609Z,29.76
2018-05-08T18:12:30.000Z,32.54
2018-05-08T18:14:57.389Z,32.57
2018-05-08T18:17:24.919Z,34.29
2018-05-08T18:19:52.146Z,34.69
2018-05-08T18:22:19.528Z,34.14
2018-05-08T18:24:46.925Z,33.83
2018-05-08T18:27:14.303Z,35.10
2018-05-08T18:29:41.694Z,34.63
2018-05-08T18:32:09.075Z,36.43
2018-05-08T18:34:36.456Z,36.98
2018-05-08T18:37:03.831Z,36.48
2018-05-08T18:39:31.235Z,37.48
2018-05-08T18:41:58.615Z,37.55
2018-05-08T18:44:25.988Z,38.00
2018-05-08T18:46:53.381Z,38.07
2018-05-08T18:49:20.860Z,39.07
2018-05-08T18:51:48.162Z,39.71
2018-05-08T18:54:15.539Z,40.46
2018-05-08T18:56:42.940Z,40.80
2018-05-08T18:59:10.344Z,40.97
2018-05-08T19:01:37.772Z,40.57
2018-05-08T19:04:05.177Z,40.98
2018-05-08T19:06:32.559Z,41.49
2018-05-08T19:08:59.951Z,41.58
2018-05-08T19:11:32.915Z,41.86
2018-05-08T19:14:00.307Z,41.92
2018-05-08T19:16:27.695Z,42.27
2018-05-08T19:19:00.655Z,42.51
2018-05-08T19:21:28.053Z,42.83
2018-05-08T19:24:01.347Z,43.04
2018-05-08T19:26:28.752Z,43.45
2018-05-08T19:29:01.879Z,43.92
2018-05-08T19:31:29.459Z,43.67
2018-05-08T19:33:56.840Z,43.59
2018-05-08T19:36:29.850Z,43.81
2018-05-08T19:38:57.235Z,43.65
2018-05-08T19:41:24.623Z,43.75
2018-05-08T19:43:52.009Z,44.02
2018-05-08T19:46:19.394Z,43.57
2018-05-08T19:48:46.851Z,43.50
2018-05-08T19:51:14.263Z,44.31
2018-05-08T19:53:41.701Z,44.36
2018-05-08T19:56:09.027Z,44.44
2018-05-08T19:58:36.418Z,44.48
2018-05-08T20:01:03.819Z,44.59
2018-05-08T20:03:31.210Z,44.45
2018-05-08T20:05:58.596Z,44.57
2018-05-08T20:08:25.983Z,44.82
2018-05-08T20:10:53.372Z,44.42
2018-05-08T20:13:20.755Z,44.50
2018-05-08T20:15:48.139Z,44.20
2018-05-08T20:18:15.542Z,44.56
2018-05-08T20:20:42.919Z,44.58
2018-05-08T20:23:10.299Z,44.03
2018-05-08T20:25:37.687Z,44.23
2018-05-08T20:28:05.068Z,45.03
2018-05-08T20:30:32.453Z,44.91
2018-05-08T20:32:59.843Z,44.57
2018-05-08T20:35:27.227Z,44.65
2018-05-08T20:37:54.610Z,44.58
2018-05-08T20:40:22.027Z,44.68
2018-05-08T20:42:49.413Z,45.09
2018-05-08T20:45:16.787Z,44.91
2018-05-08T20:47:44.171Z,44.19
2018-05-08T20:50:11.568Z,44.97
2018-05-08T20:52:39.001Z,44.96
2018-05-08T20:55:06.401Z,44.25
2018-05-08T20:57:33.786Z,44.18
2018-05-08T21:00:01.175Z,43.57
2018-05-08T21:02:28.559Z,43.62
2018-05-08T21:04:55.943Z,43.14
2018-05-08T21:07:23.339Z,44.49
2018-05-08T21:09:50.727Z,45.36
2018-05-08T21:12:18.116Z,43.60
2018-05-08T21:14:45.503Z,44.88
2018-05-08T21:17:12.883Z,44.70
2018-05-08T21:19:40.275Z,43.43
2018-05-08T21:22:07.659Z,45.20
2018-05-08T21:24:35.059Z,45.13
2018-05-08T21:27:02.448Z,44.42
2018-05-08T21:29:35.319Z,44.67
2018-05-08T21:32:02.703Z,44.83
2018-05-08T21:34:30.094Z,44.36
2018-05-08T21:36:57.475Z,44.37
2018-05-08T21:39:24.863Z,44.88
2018-05-08T21:41:52.249Z,44.99
2018-05-08T21:44:19.643Z,44.96
2018-05-08T21:46:47.032Z,44.96
2018-05-08T21:49:14.423Z,44.85
2018-05-08T21:51:41.814Z,44.96
2018-05-08T21:54:09.198Z,44.78
2018-05-08T21:56:36.592Z,45.15
2018-05-08T21:59:03.967Z,45.39
2018-05-08T22:01:31.362Z,45.50
2018-05-08T22:03:58.799Z,45.98
2018-05-08T22:06:26.164Z,45.79
2018-05-08T22:08:53.542Z,45.99
2018-05-08T22:11:20.954Z,46.78
2018-05-08T22:13:48.335Z,46.36
2018-05-08T22:16:15.714Z,47.00
2018-05-08T22:18:43.102Z,47.55
2018-05-08T22:21:10.486Z,47.60
2018-05-08T22:23:37.874Z,47.53
2018-05-08T22:26:05.256Z,47.68
2018-05-08T22:28:32.651Z,47.78
2018-05-08T22:31:00.037Z,48.02
2018-05-08T22:33:27.420Z,47.89
2018-05-08T22:35:54.803Z,47.91
2018-05-08T22:38:22.204Z,48.14
2018-05-08T22:40:49.587Z,48.34
2018-05-08T22:43:16.970Z,48.47
2018-05-08T22:45:44.359Z,48.38
2018-05-08T22:48:11.747Z,48.04
2018-05-08T22:50:39.139Z,48.19
2018-05-08T22:53:06.519Z,48.41
2018-05-08T22:55:33.912Z,48.27
2018-05-08T22:58:01.291Z,48.63
2018-05-08T23:00:28.679Z,48.69
2018-05-08T23:02:56.063Z,48.80
2018-05-08T23:05:23.467Z,48.62
2018-05-08T23:07:50.847Z,48.85
2018-05-08T23:10:18.326Z,48.70
2018-05-08T23:12:45.714Z,49.17
2018-05-08T23:15:13.100Z,49.40
2018-05-08T23:17:40.483Z,49.59
2018-05-08T23:20:07.867Z,49.81
2018-05-08T23:22:35.256Z,49.77
2018-05-08T23:25:02.643Z,50.27
2018-05-08T23:27:30.031Z,50.39
2018-05-08T23:29:57.418Z,50.79
2018-05-08T23:32:25.191Z,50.71
2018-05-08T23:34:52.576Z,51.12
2018-05-08T23:37:19.964Z,51.10
2018-05-08T23:39:47.347Z,51.27
2018-05-08T23:42:14.740Z,51.30
2018-05-08T23:44:42.275Z,51.71
2018-05-08T23:47:09.655Z,51.90
2018-05-08T23:49:37.106Z,52.14
2018-05-08T23:52:04.491Z,52.15
2018-05-08T23:54:31.886Z,52.46
2018-05-08T23:56:59.281Z,52.74
2018-05-08T23:59:26.675Z,52.94
